createdAt,value
2022-11-27T00:01:29.542Z,99865.44
2022-11-27T00:03:57.576Z,99867.19
2022-11-27T00:06:27.465Z,99842.50
2022-11-27T00:08:57.782Z,99864.28
2022-11-27T00:11:27.189Z,99862.78
2022-11-27T00:13:54.875Z,99841.50
2022-11-27T00:16:27.125Z,99860.38
2022-11-27T00:18:55.049Z,99854.03
2022-11-27T00:21:32.116Z,99860.16
2022-11-27T00:24:01.692Z,99865.16
2022-11-27T00:26:35.920Z,99854.66
2022-11-27T00:29:06.131Z,99862.66
2022-11-27T00:31:37.171Z,99857.41
2022-11-27T00:34:08.011Z,99861.88
2022-11-27T00:36:36.680Z,99865.84
2022-11-27T00:39:05.514Z,99864.72
2022-11-27T00:41:33.686Z,99854.50
2022-11-27T00:44:01.429Z,99865.19
2022-11-27T00:46:31.700Z,99866.00
2022-11-27T00:49:01.377Z,99857.00
2022-11-27T00:51:29.991Z,99863.50
2022-11-27T00:53:58.616Z,99861.00
2022-11-27T00:56:29.395Z,99862.88
2022-11-27T00:58:57.677Z,99861.00
2022-11-27T01:01:28.605Z,99848.63
2022-11-27T01:03:58.377Z,99872.91
2022-11-27T01:06:27.530Z,99868.06
2022-11-27T01:08:55.631Z,99871.81
2022-11-27T01:11:27.024Z,99837.50
2022-11-27T01:13:57.277Z,99869.06
2022-11-27T01:16:27.481Z,99873.47
2022-11-27T01:18:58.199Z,99875.78
2022-11-27T01:21:27.522Z,99870.19
2022-11-27T01:23:56.060Z,99862.22
2022-11-27T01:26:23.847Z,99870.13
2022-11-27T01:28:59.064Z,99863.00
2022-11-27T01:31:30.947Z,99867.78
2022-11-27T01:34:00.125Z,99862.38
2022-11-27T01:36:28.503Z,99872.69
2022-11-27T01:38:56.287Z,99863.41
2022-11-27T01:41:27.535Z,99863.63
2022-11-27T01:43:56.649Z,99858.44
2022-11-27T01:46:46.292Z,99863.84
2022-11-27T01:49:47.085Z,99863.38
2022-11-27T01:52:21.275Z,99854.59
2022-11-27T01:54:57.528Z,99858.78
2022-11-27T01:57:30.023Z,99835.38
2022-11-27T02:00:00.928Z,99838.72
2022-11-27T02:02:29.299Z,99857.94
2022-11-27T02:04:59.311Z,99851.69
2022-11-27T02:07:27.154Z,99845.13
2022-11-27T02:09:54.991Z,99837.81
2022-11-27T02:12:48.732Z,99838.84
2022-11-27T02:15:41.326Z,99841.38
2022-11-27T02:18:40.176Z,99840.88
2022-11-27T02:21:20.233Z,99839.59
2022-11-27T02:23:57.299Z,99836.53
2022-11-27T02:27:02.531Z,99835.81
2022-11-27T02:29:33.945Z,99831.09
2022-11-27T02:32:07.562Z,99828.63
2022-11-27T02:34:57.937Z,99833.47
2022-11-27T02:37:47.102Z,99830.34
2022-11-27T02:40:22.091Z,99819.44
2022-11-27T02:42:53.227Z,99829.19
2022-11-27T02:45:39.797Z,99830.03
2022-11-27T02:48:09.337Z,99821.59
2022-11-27T02:50:40.826Z,99814.50
2022-11-27T02:53:15.592Z,99817.72
2022-11-27T02:55:44.436Z,99812.94
2022-11-27T02:58:17.094Z,99795.53
2022-11-27T03:00:47.554Z,99792.03
2022-11-27T03:03:21.150Z,99801.28
2022-11-27T03:05:53.400Z,99738.97
2022-11-27T03:08:38.555Z,99799.91
2022-11-27T03:11:12.000Z,99791.97
2022-11-27T03:13:44.680Z,99802.91
2022-11-27T03:16:12.400Z,99806.31
2022-11-27T03:19:08.191Z,99795.00
2022-11-27T03:21:40.364Z,99798.94
2022-11-27T03:24:09.709Z,99790.00
2022-11-27T03:26:37.969Z,99796.22
2022-11-27T03:29:11.173Z,99801.03
2022-11-27T03:31:39.436Z,99787.81
2022-11-27T03:34:07.823Z,99795.16
2022-11-27T03:36:35.578Z,99805.56
2022-11-27T03:39:04.713Z,99787.03
2022-11-27T03:42:00.169Z,99789.53
2022-11-27T03:44:53.113Z,99789.16
2022-11-27T03:47:39.710Z,99784.91
2022-11-27T03:50:17.718Z,99787.88
2022-11-27T03:53:08.430Z,99780.34
2022-11-27T03:56:05.408Z,99778.91
2022-11-27T03:58:42.310Z,99777.47
2022-11-27T04:01:14.442Z,99776.63
2022-11-27T04:03:42.341Z,99772.88
2022-11-27T04:06:10.077Z,99774.06
2022-11-27T04:08:37.814Z,99774.94
2022-11-27T04:11:05.646Z,99781.84
2022-11-27T04:13:33.376Z,99781.81
2022-11-27T04:16:02.466Z,99783.09
2022-11-27T04:18:30.289Z,99787.34
2022-11-27T04:20:58.062Z,99793.84
2022-11-27T04:23:25.886Z,99785.13
2022-11-27T04:25:54.312Z,99785.03
2022-11-27T04:28:22.041Z,99781.34
2022-11-27T04:30:54.784Z,99789.09
2022-11-27T04:33:23.411Z,99798.13
2022-11-27T04:35:54.132Z,99791.13
2022-11-27T04:38:22.850Z,99795.69
2022-11-27T04:40:53.686Z,99785.81
2022-11-27T04:43:21.453Z,99755.47
2022-11-27T04:45:49.129Z,99776.53
2022-11-27T04:48:16.880Z,99776.66
2022-11-27T04:50:44.654Z,99777.63
2022-11-27T04:53:12.359Z,99749.34
2022-11-27T04:55:40.054Z,99769.50
2022-11-27T04:58:07.764Z,99754.28
2022-11-27T05:00:35.493Z,99769.50
2022-11-27T05:03:03.352Z,99772.25
2022-11-27T05:05:31.059Z,99768.06
2022-11-27T05:07:58.732Z,99770.50
2022-11-27T05:10:26.786Z,99776.66
2022-11-27T05:12:54.524Z,99774.34
2022-11-27T05:15:22.187Z,99776.19
2022-11-27T05:17:49.932Z,99782.25
2022-11-27T05:20:18.000Z,99783.38
2022-11-27T05:22:46.189Z,99782.34
2022-11-27T05:25:13.867Z,99778.16
2022-11-27T05:27:41.550Z,99784.00
2022-11-27T05:30:09.770Z,99786.06
2022-11-27T05:32:37.606Z,99787.34
2022-11-27T05:35:05.497Z,99782.72
2022-11-27T05:37:33.226Z,99785.31
2022-11-27T05:40:00.926Z,99774.75
2022-11-27T05:42:28.601Z,99777.09
2022-11-27T05:44:58.471Z,99773.97
2022-11-27T05:47:26.479Z,99772.94
2022-11-27T05:49:54.477Z,99774.84
2022-11-27T05:52:22.180Z,99778.19
2022-11-27T05:54:49.879Z,99775.22
2022-11-27T05:57:17.573Z,99776.50
2022-11-27T05:59:45.261Z,99780.00
2022-11-27T06:02:19.552Z,99782.47
2022-11-27T06:04:49.382Z,99782.63
2022-11-27T06:07:17.229Z,99777.88
2022-11-27T06:09:45.180Z,99789.81
2022-11-27T06:12:12.913Z,99789.53
2022-11-27T06:14:40.801Z,99784.88
2022-11-27T06:17:08.689Z,99784.47
2022-11-27T06:19:36.378Z,99794.56
2022-11-27T06:22:04.061Z,99788.63
2022-11-27T06:24:31.741Z,99794.25
2022-11-27T06:26:59.423Z,99806.28
2022-11-27T06:29:27.177Z,99798.78
2022-11-27T06:31:54.991Z,99801.25
2022-11-27T06:34:22.692Z,99805.03
2022-11-27T06:36:50.677Z,99798.72
2022-11-27T06:39:18.471Z,99802.44
2022-11-27T06:41:46.183Z,99802.88
2022-11-27T06:44:13.867Z,99793.31
2022-11-27T06:46:41.619Z,99811.75
2022-11-27T06:49:10.482Z,99799.41
2022-11-27T06:51:38.179Z,99804.16
2022-11-27T06:54:06.072Z,99809.88
2022-11-27T06:56:33.860Z,99806.91
2022-11-27T06:59:02.894Z,99810.09
2022-11-27T07:01:32.394Z,99813.03
2022-11-27T07:04:00.583Z,99809.91
2022-11-27T07:06:29.217Z,99817.50
2022-11-27T07:08:57.350Z,99777.69
2022-11-27T07:11:28.132Z,99805.22
2022-11-27T07:13:58.661Z,99804.03
2022-11-27T07:16:27.693Z,99806.16
2022-11-27T07:18:58.590Z,99806.34
2022-11-27T07:21:26.815Z,99810.56
2022-11-27T07:23:56.534Z,99808.03
2022-11-27T07:26:26.857Z,99808.66
2022-11-27T07:28:55.099Z,99811.22
2022-11-27T07:31:26.399Z,99796.88
2022-11-27T07:33:54.136Z,99802.81
2022-11-27T07:36:30.105Z,99796.53
2022-11-27T07:38:58.495Z,99791.03
2022-11-27T07:41:32.196Z,99813.94
2022-11-27T07:44:01.594Z,99808.66
2022-11-27T07:46:30.163Z,99813.41
2022-11-27T07:48:58.144Z,99806.22
2022-11-27T07:51:25.825Z,99806.84
2022-11-27T07:53:53.574Z,99807.44
2022-11-27T07:56:22.244Z,99806.00
2022-11-27T07:58:50.307Z,99800.66
2022-11-27T08:01:20.241Z,99799.69
2022-11-27T08:03:48.264Z,99764.66
2022-11-27T08:06:24.784Z,99788.75
2022-11-27T08:08:54.454Z,99799.88
2022-11-27T08:11:24.740Z,99791.69
2022-11-27T08:13:57.792Z,99800.88
2022-11-27T08:16:25.768Z,99798.53
2022-11-27T08:18:53.964Z,99792.16
2022-11-27T08:21:21.802Z,99791.78
2022-11-27T08:23:49.513Z,99796.41
2022-11-27T08:26:17.228Z,99791.81
2022-11-27T08:28:45.083Z,99790.34
2022-11-27T08:31:14.957Z,99796.56
2022-11-27T08:33:42.947Z,99801.16
2022-11-27T08:36:16.257Z,99795.94
2022-11-27T08:38:45.836Z,99794.78
2022-11-27T08:41:13.536Z,99786.13
2022-11-27T08:43:41.285Z,99787.16
2022-11-27T08:46:09.521Z,99792.22
2022-11-27T08:48:37.954Z,99784.00
2022-11-27T08:51:13.657Z,99781.72
2022-11-27T08:53:41.785Z,99793.19
2022-11-27T08:56:15.048Z,99793.13
2022-11-27T08:58:42.989Z,99792.97
2022-11-27T09:01:22.001Z,99796.78
2022-11-27T09:03:50.545Z,99779.72
2022-11-27T09:06:22.356Z,99795.84
2022-11-27T09:08:50.063Z,99795.50
2022-11-27T09:11:20.010Z,99794.66
2022-11-27T09:13:48.550Z,99787.03
2022-11-27T09:16:19.269Z,99783.53
2022-11-27T09:18:48.711Z,99770.28
2022-11-27T09:21:18.203Z,99767.84
2022-11-27T09:23:45.997Z,99777.72
2022-11-27T09:26:15.867Z,99774.13
2022-11-27T09:28:44.651Z,99766.28
2022-11-27T09:31:14.976Z,99766.69
2022-11-27T09:33:44.293Z,99766.84
2022-11-27T09:36:20.164Z,99760.69
2022-11-27T09:38:48.321Z,99760.44
2022-11-27T09:41:35.836Z,99755.97
2022-11-27T09:44:29.738Z,99762.75
2022-11-27T09:47:01.044Z,99760.31
2022-11-27T09:49:31.254Z,99752.81
2022-11-27T09:52:33.526Z,99751.84
2022-11-27T09:55:12.119Z,99756.34
2022-11-27T09:57:41.784Z,99753.16
2022-11-27T10:00:18.763Z,99756.25
2022-11-27T10:02:48.251Z,99735.56
2022-11-27T10:05:25.734Z,99703.25
2022-11-27T10:08:25.004Z,99737.81
2022-11-27T10:11:01.666Z,99731.63
2022-11-27T10:13:47.933Z,99733.47
2022-11-27T10:16:27.285Z,99732.59
2022-11-27T10:19:17.952Z,99729.72
2022-11-27T10:22:16.598Z,99718.31
2022-11-27T10:25:05.162Z,99717.31
2022-11-27T10:27:41.838Z,99707.47
2022-11-27T10:30:21.469Z,99696.16
2022-11-27T10:32:55.432Z,99694.63
2022-11-27T10:35:26.748Z,99688.31
2022-11-27T10:38:06.452Z,99683.31
2022-11-27T10:40:56.605Z,99684.28
2022-11-27T10:43:26.913Z,99679.75
2022-11-27T10:45:57.714Z,99678.00
2022-11-27T10:48:27.700Z,99659.31
2022-11-27T10:50:55.490Z,99663.00
2022-11-27T10:53:30.218Z,99650.84
2022-11-27T10:56:15.043Z,99647.50
2022-11-27T10:59:07.973Z,99639.31
2022-11-27T11:01:47.529Z,99639.66
2022-11-27T11:04:37.375Z,99642.97
2022-11-27T11:07:05.379Z,99642.00
2022-11-27T11:09:35.997Z,99638.97
2022-11-27T11:12:22.140Z,99629.72
2022-11-27T11:15:00.720Z,99645.19
2022-11-27T11:17:34.803Z,99639.22
2022-11-27T11:20:15.249Z,99634.56
2022-11-27T11:22:48.324Z,99634.72
2022-11-27T11:25:21.417Z,99635.16
2022-11-27T11:27:51.278Z,99631.06
2022-11-27T11:30:29.570Z,99636.13
2022-11-27T11:33:03.074Z,99634.81
2022-11-27T11:35:34.770Z,99629.28
2022-11-27T11:38:06.044Z,99625.44
2022-11-27T11:40:36.589Z,99629.31
2022-11-27T11:43:26.230Z,99622.84
2022-11-27T11:45:54.062Z,99606.59
2022-11-27T11:48:28.189Z,99599.94
2022-11-27T11:51:03.451Z,99594.38
2022-11-27T11:53:45.621Z,99592.41
2022-11-27T11:56:16.130Z,99584.28
2022-11-27T11:58:53.430Z,99581.22
2022-11-27T12:01:58.962Z,99572.53
2022-11-27T12:04:56.150Z,99551.06
2022-11-27T12:07:29.955Z,99555.41
2022-11-27T12:10:14.279Z,99554.06
2022-11-27T12:13:03.773Z,99545.09
2022-11-27T12:15:39.655Z,99535.00
2022-11-27T12:18:38.357Z,99536.88
2022-11-27T12:21:12.002Z,99526.59
2022-11-27T12:23:45.866Z,99515.22
2022-11-27T12:26:43.198Z,99501.28
2022-11-27T12:29:27.760Z,99507.31
2022-11-27T12:32:17.225Z,99502.44
2022-11-27T12:35:02.391Z,99490.00
2022-11-27T12:37:45.401Z,99484.16
2022-11-27T12:40:31.969Z,99484.38
2022-11-27T12:43:27.340Z,99478.38
2022-11-27T12:46:03.554Z,99478.66
2022-11-27T12:48:47.398Z,99467.66
2022-11-27T12:51:23.287Z,99475.25
2022-11-27T12:54:00.616Z,99447.00
2022-11-27T12:56:39.049Z,99457.22
2022-11-27T12:59:33.683Z,99462.09
2022-11-27T13:02:10.304Z,99456.19
2022-11-27T13:04:48.496Z,99445.97
2022-11-27T13:07:25.927Z,99462.56
2022-11-27T13:10:22.319Z,99465.19
2022-11-27T13:12:59.922Z,99463.66
2022-11-27T13:15:34.014Z,99455.78
2022-11-27T13:18:17.053Z,99440.66
2022-11-27T13:20:49.427Z,99430.03
2022-11-27T13:23:21.346Z,99454.53
2022-11-27T13:25:56.892Z,99449.91
2022-11-27T13:29:01.608Z,99451.38
2022-11-27T13:31:37.670Z,99459.09
2022-11-27T13:34:12.859Z,99454.94
2022-11-27T13:36:47.145Z,99455.69
2022-11-27T13:39:31.338Z,99454.81
2022-11-27T13:42:21.255Z,99454.28
2022-11-27T13:44:59.509Z,99439.53
2022-11-27T13:47:30.443Z,99425.22
2022-11-27T13:50:20.238Z,99422.69
2022-11-27T13:52:57.264Z,99412.41
2022-11-27T13:55:31.295Z,99430.94
2022-11-27T13:58:01.112Z,99429.31
2022-11-27T14:00:41.248Z,99427.06
2022-11-27T14:03:23.708Z,99417.31
2022-11-27T14:05:51.487Z,99439.38
2022-11-27T14:08:32.810Z,99433.72
2022-11-27T14:11:13.130Z,99409.25
2022-11-27T14:13:47.985Z,99435.94
2022-11-27T14:16:18.792Z,99431.97
2022-11-27T14:18:54.452Z,99441.09
2022-11-27T14:21:46.881Z,99442.84
2022-11-27T14:24:44.976Z,99446.16
2022-11-27T14:27:19.104Z,99439.94
2022-11-27T14:29:47.446Z,99435.94
2022-11-27T14:32:17.026Z,99445.66
2022-11-27T14:34:45.514Z,99425.41
2022-11-27T14:37:28.076Z,99444.50
2022-11-27T14:39:56.466Z,99450.75
2022-11-27T14:42:29.350Z,99451.00
2022-11-27T14:45:02.850Z,99453.41
2022-11-27T14:47:30.764Z,99456.47
2022-11-27T14:49:59.067Z,99426.69
2022-11-27T14:52:27.991Z,99450.56
2022-11-27T14:54:56.825Z,99458.25
2022-11-27T14:57:30.030Z,99448.47
2022-11-27T15:00:27.133Z,99448.88
2022-11-27T15:02:55.577Z,99447.47
2022-11-27T15:05:27.357Z,99438.63
2022-11-27T15:07:57.617Z,99439.19
2022-11-27T15:10:32.404Z,99429.84
2022-11-27T15:13:03.309Z,99438.56
2022-11-27T15:15:34.927Z,99428.72
2022-11-27T15:18:08.956Z,99432.94
2022-11-27T15:20:41.215Z,99425.69
2022-11-27T15:23:36.463Z,99427.94
2022-11-27T15:26:04.543Z,99420.25
2022-11-27T15:28:38.499Z,99422.19
2022-11-27T15:31:52.644Z,99422.25
2022-11-27T15:34:20.355Z,99423.97
2022-11-27T15:37:06.473Z,99419.56
2022-11-27T15:39:39.339Z,99417.31
2022-11-27T15:42:10.952Z,99419.44
2022-11-27T15:44:39.408Z,99417.44
2022-11-27T15:47:07.850Z,99418.97
2022-11-27T15:49:35.531Z,99419.69
2022-11-27T15:52:03.186Z,99405.78
2022-11-27T15:54:30.916Z,99418.50
2022-11-27T15:56:58.568Z,99406.97
2022-11-27T15:59:27.366Z,99409.13
2022-11-27T16:01:55.985Z,99348.31
2022-11-27T16:04:23.817Z,99402.78
2022-11-27T16:06:51.508Z,99406.59
2022-11-27T16:09:19.303Z,99413.69
2022-11-27T16:11:47.051Z,99407.00
2022-11-27T16:14:14.841Z,99415.34
2022-11-27T16:16:42.608Z,99407.19
2022-11-27T16:19:12.242Z,99402.09
2022-11-27T16:21:40.089Z,99408.38
2022-11-27T16:24:09.726Z,99406.06
2022-11-27T16:26:38.058Z,99385.22
2022-11-27T16:29:07.029Z,99391.69
2022-11-27T16:31:34.950Z,99387.38
2022-11-27T16:34:05.772Z,99387.72
2022-11-27T16:36:34.463Z,99392.69
2022-11-27T16:39:03.095Z,99401.28
2022-11-27T16:41:31.268Z,99389.91
2022-11-27T16:43:59.225Z,99388.41
2022-11-27T16:46:29.662Z,99392.16
2022-11-27T16:49:00.807Z,99381.25
2022-11-27T16:51:33.449Z,99367.63
2022-11-27T16:54:03.753Z,99397.50
2022-11-27T16:56:33.209Z,99390.97
2022-11-27T16:59:03.609Z,99392.09
2022-11-27T17:01:36.135Z,99392.00
2022-11-27T17:04:07.159Z,99387.44
2022-11-27T17:06:34.957Z,99376.16
2022-11-27T17:09:05.030Z,99329.31
2022-11-27T17:11:35.509Z,99390.63
2022-11-27T17:14:07.512Z,99392.91
2022-11-27T17:16:36.459Z,99392.66
2022-11-27T17:19:05.373Z,99388.91
2022-11-27T17:21:35.837Z,99393.28
2022-11-27T17:24:13.165Z,99390.94
2022-11-27T17:26:45.211Z,99391.50
2022-11-27T17:29:15.397Z,99402.41
2022-11-27T17:31:43.649Z,99394.31
2022-11-27T17:34:15.943Z,99376.66
2022-11-27T17:36:45.928Z,99383.78
2022-11-27T17:39:16.242Z,99386.78
2022-11-27T17:41:45.186Z,99385.25
2022-11-27T17:44:13.176Z,99384.81
2022-11-27T17:46:41.066Z,99393.69
2022-11-27T17:49:09.145Z,99377.56
2022-11-27T17:51:37.429Z,99383.88
2022-11-27T17:54:06.093Z,99382.53
2022-11-27T17:56:36.017Z,99367.25
2022-11-27T17:59:04.231Z,99382.59
2022-11-27T18:01:34.540Z,99357.41
2022-11-27T18:04:04.244Z,99367.19
2022-11-27T18:06:33.654Z,99383.19
2022-11-27T18:09:02.095Z,99382.59
2022-11-27T18:11:33.742Z,99377.56
2022-11-27T18:14:01.780Z,99373.63
2022-11-27T18:16:34.427Z,99382.06
2022-11-27T18:19:07.099Z,99369.06
2022-11-27T18:21:36.009Z,99383.50
2022-11-27T18:27:07.868Z,99382.88
2022-11-27T18:29:42.447Z,99388.66
2022-11-27T18:32:11.506Z,99387.75
2022-11-27T18:34:39.385Z,99306.53
2022-11-27T18:37:07.756Z,99384.19
2022-11-27T18:39:36.614Z,99382.00
2022-11-27T18:42:05.182Z,99377.38
2022-11-27T18:44:41.148Z,99377.25
2022-11-27T18:47:12.300Z,99374.66
2022-11-27T18:49:41.068Z,99374.78
2022-11-27T18:52:10.468Z,99370.06
2022-11-27T18:54:38.409Z,99351.31
2022-11-27T18:57:07.571Z,99368.59
2022-11-27T18:59:35.921Z,99364.25
2022-11-27T19:02:05.046Z,99369.50
2022-11-27T19:04:32.890Z,99363.53
2022-11-27T19:07:00.598Z,99365.19
2022-11-27T19:09:28.569Z,99367.69
2022-11-27T19:11:56.373Z,99360.13
2022-11-27T19:14:24.580Z,99362.59
2022-11-27T19:16:52.877Z,99369.25
2022-11-27T19:22:10.571Z,99373.47
2022-11-27T19:24:40.474Z,99372.31
2022-11-27T19:27:08.886Z,99374.22
2022-11-27T19:29:36.774Z,99374.22
2022-11-27T19:32:05.124Z,99372.47
2022-11-27T19:34:33.083Z,99379.34
2022-11-27T19:37:01.011Z,99367.34
2022-11-27T19:39:29.480Z,99376.63
2022-11-27T19:41:58.243Z,99367.00
2022-11-27T19:44:26.839Z,99363.41
2022-11-27T19:46:54.649Z,99362.38
2022-11-27T19:49:22.440Z,99369.16
2022-11-27T19:51:50.380Z,99369.38
2022-11-27T19:54:20.584Z,99373.03
2022-11-27T19:56:49.954Z,99354.75
2022-11-27T19:59:25.612Z,99365.34
2022-11-27T20:01:54.801Z,99365.34
2022-11-27T20:04:28.187Z,99355.00
2022-11-27T20:06:56.187Z,99304.97
2022-11-27T20:09:24.483Z,99356.19
2022-11-27T20:11:52.229Z,99349.13
2022-11-27T20:14:20.470Z,99347.94
2022-11-27T20:16:48.273Z,99308.72
2022-11-27T20:19:16.137Z,99342.97
2022-11-27T20:21:45.579Z,99335.88
2022-11-27T20:24:14.269Z,99331.81
2022-11-27T20:26:43.227Z,99328.47
2022-11-27T20:29:15.647Z,99326.81
2022-11-27T20:31:45.049Z,99318.03
2022-11-27T20:34:19.310Z,99303.50
2022-11-27T20:36:48.266Z,99321.91
2022-11-27T20:39:20.956Z,99329.19
2022-11-27T20:41:50.403Z,99337.03
2022-11-27T20:44:18.594Z,99335.59
2022-11-27T20:46:47.189Z,99335.31
2022-11-27T20:49:15.603Z,99337.63
2022-11-27T20:51:44.949Z,99337.50
2022-11-27T20:54:12.935Z,99319.94
2022-11-27T20:56:43.206Z,99338.13
2022-11-27T20:59:11.212Z,99270.72
2022-11-27T21:01:41.402Z,99334.88
2022-11-27T21:04:25.682Z,99340.88
2022-11-27T21:06:54.497Z,99338.13
2022-11-27T21:09:22.551Z,99335.41
2022-11-27T21:11:50.286Z,99336.34
2022-11-27T21:14:19.649Z,99340.38
2022-11-27T21:16:49.937Z,99315.59
2022-11-27T21:19:26.222Z,99328.38
2022-11-27T21:21:56.930Z,99340.25
2022-11-27T21:24:28.433Z,99330.28
2022-11-27T21:26:56.866Z,99342.16
2022-11-27T21:29:25.878Z,99342.97
2022-11-27T21:31:55.457Z,99342.97
2022-11-27T21:34:24.772Z,99337.25
2022-11-27T21:36:52.510Z,99330.91
2022-11-27T21:39:21.084Z,99328.13
2022-11-27T21:41:52.233Z,99331.75
2022-11-27T21:44:21.841Z,99323.56
2022-11-27T21:46:50.744Z,99329.50
2022-11-27T21:49:21.081Z,99329.25
2022-11-27T21:51:53.227Z,99328.13
2022-11-27T21:54:24.436Z,99332.81
2022-11-27T21:56:53.421Z,99335.31
2022-11-27T21:59:21.620Z,99335.28
2022-11-27T22:01:49.588Z,99326.69
2022-11-27T22:04:17.843Z,99338.50
2022-11-27T22:06:46.294Z,99318.81
2022-11-27T22:09:15.991Z,99333.94
2022-11-27T22:11:45.987Z,99335.44
2022-11-27T22:14:16.010Z,99314.31
2022-11-27T22:16:47.827Z,99333.72
2022-11-27T22:19:16.771Z,99324.41
2022-11-27T22:21:45.589Z,99302.88
2022-11-27T22:24:18.960Z,99326.22
2022-11-27T22:26:49.186Z,99320.00
2022-11-27T22:29:17.059Z,99314.84
2022-11-27T22:31:44.835Z,99307.00
2022-11-27T22:34:17.126Z,99310.53
2022-11-27T22:36:46.017Z,99304.25
2022-11-27T22:39:14.252Z,99301.16
2022-11-27T22:41:42.706Z,99307.44
2022-11-27T22:44:15.159Z,99302.50
2022-11-27T22:46:43.496Z,99293.56
2022-11-27T22:49:14.201Z,99300.31
2022-11-27T22:51:42.606Z,99298.34
2022-11-27T22:54:14.888Z,99290.09
2022-11-27T22:56:42.873Z,99288.84
2022-11-27T23:01:59.760Z,99290.53
2022-11-27T23:04:27.654Z,99288.28
2022-11-27T23:06:55.306Z,99288.59
2022-11-27T23:09:23.387Z,99284.38
2022-11-27T23:11:51.454Z,99265.75
2022-11-27T23:14:19.397Z,99291.84
2022-11-27T23:16:47.142Z,99283.53
2022-11-27T23:19:15.010Z,99265.81
2022-11-27T23:21:42.990Z,99271.25
2022-11-27T23:24:15.243Z,99277.31
2022-11-27T23:26:43.419Z,99280.69
2022-11-27T23:29:11.434Z,99273.25
2022-11-27T23:31:39.384Z,99274.16
2022-11-27T23:34:10.594Z,99251.28
2022-11-27T23:36:38.617Z,99264.81
2022-11-27T23:39:09.200Z,99263.84
2022-11-27T23:41:37.001Z,99263.75
2022-11-27T23:44:04.790Z,99258.09
2022-11-27T23:46:32.771Z,99255.59
2022-11-27T23:49:01.559Z,99249.03
2022-11-27T23:51:32.753Z,99249.69
2022-11-27T23:54:01.663Z,99250.72
2022-11-27T23:56:32.085Z,99246.09
2022-11-27T23:59:00.966Z,99246.75
